Time;durP1;ratioP1;P1;durP2;ratioP2;P2;SDS_P1;SDS_P2;PMS_P1;PMS_P2;Temp;Humidity;BMP_temperature;BMP_pressure;BME280_temperature;BME280_humidity;BME280_pressure;Samples;Min_cycle;Max_cycle;Signal;HPM_P1;HPM_P2
2023/12/27 00:00:49;;;;;;;7.90;5.03;;;;;;;-5.29;78.88;94788.72;6100953;29;20052;-67
2023/12/27 00:03:53;;;;;;;9.32;5.70;;;;;;;-5.21;78.99;94781.56;6076443;29;20056;-67
2023/12/27 00:06:59;;;;;;;8.73;5.00;;;;;;;-5.27;79.16;94782.63;6077983;29;20056;-67
2023/12/27 00:10:04;;;;;;;8.48;5.07;;;;;;;-5.29;79.27;94783.59;6078205;29;20491;-66
2023/12/27 00:13:07;;;;;;;8.23;4.13;;;;;;;-5.25;79.61;94785.13;6078182;29;20048;-67
2023/12/27 00:16:10;;;;;;;6.63;3.83;;;;;;;-4.98;78.48;94785.84;6078130;29;20035;-66
2023/12/27 00:19:18;;;;;;;7.45;4.00;;;;;;;-5.01;78.67;94785.94;6077499;29;20450;-66
2023/12/27 00:22:20;;;;;;;8.70;5.05;;;;;;;-5.11;78.40;94788.03;6077569;29;20044;-67
2023/12/27 00:25:28;;;;;;;7.03;4.68;;;;;;;-4.92;78.35;94789.91;6078027;29;20049;-67
2023/12/27 00:28:33;;;;;;;7.85;4.28;;;;;;;-4.72;77.39;94774.59;6077770;29;20139;-67
2023/12/27 00:31:41;;;;;;;6.22;4.10;;;;;;;-4.85;77.73;94773.38;6077825;29;20052;-67
2023/12/27 00:34:47;;;;;;;11.55;5.70;;;;;;;-4.99;77.57;94786.72;6077371;29;20045;-67
2023/12/27 00:37:57;;;;;;;5.68;3.88;;;;;;;-5.13;78.00;94784.69;6077729;29;20064;-67
2023/12/27 00:40:59;;;;;;;10.40;5.82;;;;;;;-5.24;78.68;94762.03;6076349;29;20040;-67
2023/12/27 00:44:01;;;;;;;7.35;4.53;;;;;;;-5.16;78.58;94787.34;6077181;29;20108;-67
2023/12/27 00:47:07;;;;;;;6.03;3.97;;;;;;;-5.15;78.33;94785.63;6076013;29;20135;-67
2023/12/27 00:50:10;;;;;;;8.13;5.05;;;;;;;-5.03;77.91;94796.28;6077295;29;20044;-67
2023/12/27 00:53:12;;;;;;;6.30;4.03;;;;;;;-5.09;78.10;94796.50;6075556;29;20056;-67
2023/12/27 00:56:19;;;;;;;9.73;5.40;;;;;;;-4.96;77.88;94807.97;6077081;29;20503;-67
2023/12/27 00:59:23;;;;;;;9.63;5.82;;;;;;;-4.96;78.39;94797.69;6077255;29;20069;-67
2023/12/27 01:02:29;;;;;;;5.20;3.28;;;;;;;-5.04;78.24;94797.19;6086669;29;20052;-66
2023/12/27 01:05:34;;;;;;;9.65;5.35;;;;;;;-5.00;78.26;94795.34;6082969;29;20060;-67
2023/12/27 01:08:40;;;;;;;8.15;4.85;;;;;;;-4.96;78.42;94802.81;6100260;29;20155;-67
2023/12/27 01:11:44;;;;;;;10.75;6.63;;;;;;;-5.03;78.32;94795.44;6100412;29;20498;-67
2023/12/27 01:14:45;;;;;;;9.18;6.07;;;;;;;-5.04;79.04;94794.63;6099639;29;20421;-67
2023/12/27 01:17:47;;;;;;;10.77;6.18;;;;;;;-5.05;79.38;94802.34;6083247;29;20052;-66
2023/12/27 01:20:48;;;;;;;8.55;4.70;;;;;;;-5.00;79.35;94796.16;6099379;29;20244;-67
2023/12/27 01:23:50;;;;;;;9.70;5.85;;;;;;;-4.90;79.39;94800.94;6099587;29;20053;-67
2023/12/27 01:26:53;;;;;;;10.40;5.72;;;;;;;-4.89;78.94;94812.88;6099957;29;20052;-67
2023/12/27 01:29:57;;;;;;;6.05;3.95;;;;;;;-4.93;79.45;94811.31;6099968;29;20493;-66
2023/12/27 01:32:59;;;;;;;9.45;5.30;;;;;;;-4.90;79.47;94824.03;6099342;29;20052;-67
2023/12/27 01:36:06;;;;;;;11.65;6.30;;;;;;;-4.70;78.93;94824.09;6099136;29;20182;-68
2023/12/27 01:39:10;;;;;;;7.38;5.18;;;;;;;-4.80;78.83;94821.06;6099803;29;20044;-67
2023/12/27 01:42:12;;;;;;;7.63;5.18;;;;;;;-4.77;79.29;94827.81;6082656;29;20130;-67
2023/12/27 01:45:15;;;;;;;6.70;5.15;;;;;;;-4.80;78.74;94818.50;6099633;29;20048;-68
2023/12/27 01:48:20;;;;;;;;;;;;;;;-4.74;78.50;94827.69;6099618;29;20048;-67
2023/12/27 01:51:21;;;;;;;7.28;4.93;;;;;;;-4.77;78.38;94832.94;6099823;29;19925;-68
2023/12/27 01:54:26;;;;;;;9.70;4.88;;;;;;;-4.85;78.44;94830.66;6099643;29;20055;-67
2023/12/27 01:57:30;;;;;;;9.10;5.20;;;;;;;-4.82;79.02;94834.84;6098550;29;20056;-68
2023/12/27 02:00:34;;;;;;;8.88;5.50;;;;;;;-4.85;79.22;94830.66;6099318;29;20062;-66
2023/12/27 02:03:36;;;;;;;8.40;5.18;;;;;;;-4.81;79.23;94821.09;6098611;29;20048;-68
2023/12/27 02:06:40;;;;;;;7.50;4.70;;;;;;;-4.75;79.33;94816.59;6099564;29;20052;-67
2023/12/27 02:09:42;;;;;;;7.88;5.10;;;;;;;-4.73;78.92;94813.94;6099600;29;20426;-67
2023/12/27 02:12:43;;;;;;;8.60;5.05;;;;;;;-4.62;78.76;94809.25;6099344;29;20040;-67
2023/12/27 02:15:47;;;;;;;8.35;4.07;;;;;;;-4.46;78.83;94811.22;6098656;29;20207;-67
2023/12/27 02:18:49;;;;;;;8.30;4.25;;;;;;;-4.39;79.01;94817.78;6099363;29;20051;-67
2023/12/27 02:21:54;;;;;;;5.28;2.85;;;;;;;-4.44;78.85;94805.16;6099213;29;20056;-67
2023/12/27 02:24:55;;;;;;;6.75;5.05;;;;;;;-4.23;77.80;94829.13;6099222;29;20051;-68
2023/12/27 02:28:00;;;;;;;8.68;6.05;;;;;;;-4.28;77.83;94821.59;6099069;29;20064;-67
2023/12/27 02:31:01;;;;;;;12.52;6.20;;;;;;;-4.43;77.73;94832.47;6098654;29;20474;-67
2023/12/27 02:34:03;;;;;;;11.57;7.22;;;;;;;-4.54;77.87;94817.47;6098321;29;20048;-67
2023/12/27 02:37:06;;;;;;;7.07;4.75;;;;;;;-4.51;77.48;94814.78;6099059;29;20055;-67
2023/12/27 02:40:11;;;;;;;5.95;3.95;;;;;;;-4.46;77.88;94822.31;6099378;29;20534;-67
2023/12/27 02:43:12;;;;;;;8.48;5.20;;;;;;;-4.31;77.14;94833.72;6084662;29;20060;-67
2023/12/27 02:46:14;;;;;;;7.13;4.57;;;;;;;-4.36;77.50;94822.78;6102882;29;20051;-67
2023/12/27 02:49:17;;;;;;;8.30;4.65;;;;;;;-4.38;76.99;94822.03;6103097;29;20048;-67
2023/12/27 02:52:24;;;;;;;6.53;4.35;;;;;;;-4.51;77.43;94829.38;6103204;29;20082;-67
2023/12/27 02:55:28;;;;;;;7.95;4.28;;;;;;;-4.51;77.65;94819.94;6102379;29;20052;-66
2023/12/27 02:58:29;;;;;;;5.75;3.78;;;;;;;-4.50;78.29;94825.91;6086025;29;20048;-68
2023/12/27 03:01:35;;;;;;;;;;;;;;;-4.15;77.58;94832.22;6102991;29;20521;-66
2023/12/27 03:04:37;;;;;;;8.38;5.30;;;;;;;-4.21;76.58;94829.91;6102891;29;19927;-68
2023/12/27 03:07:38;;;;;;;8.48;5.00;;;;;;;-4.42;76.70;94823.88;6102800;29;20065;-68
2023/12/27 03:10:39;;;;;;;6.88;3.17;;;;;;;-4.34;76.36;94831.28;6101947;29;20044;-67
2023/12/27 03:13:41;;;;;;;7.75;5.38;;;;;;;-4.51;76.38;94825.06;6101865;29;20048;-67
2023/12/27 03:16:45;;;;;;;11.13;6.75;;;;;;;-4.66;77.35;94830.78;6102219;29;20055;-66
2023/12/27 03:19:47;;;;;;;9.88;5.95;;;;;;;-4.68;77.54;94830.00;6102721;29;20051;-66
2023/12/27 03:22:52;;;;;;;11.68;6.55;;;;;;;-4.53;77.78;94837.13;6086023;29;20043;-68
2023/12/27 03:25:56;;;;;;;10.93;5.78;;;;;;;-4.49;77.69;94837.03;6101892;29;20525;-67
2023/12/27 03:28:58;;;;;;;8.55;4.88;;;;;;;-4.42;77.28;94843.56;6102004;29;20720;-67
2023/12/27 03:31:59;;;;;;;11.77;6.38;;;;;;;-4.58;77.04;94822.81;6102223;29;20047;-67
2023/12/27 03:35:01;;;;;;;9.00;4.47;;;;;;;-4.39;77.40;94838.31;6102145;29;20040;-67
2023/12/27 03:38:02;;;;;;;9.70;5.72;;;;;;;-4.43;77.45;94844.47;6085239;29;20056;-67
2023/12/27 03:41:06;;;;;;;13.85;6.55;;;;;;;-4.52;77.70;94841.38;6102023;29;20044;-67
2023/12/27 03:44:08;;;;;;;5.53;3.60;;;;;;;-4.34;77.67;94841.53;6084766;29;20143;-67
2023/12/27 03:47:09;;;;;;;12.65;6.90;;;;;;;-4.41;77.76;94842.69;6084613;29;20430;-67
2023/12/27 03:50:13;;;;;;;10.85;5.90;;;;;;;-4.52;77.75;94843.94;6102161;29;20044;-67
2023/12/27 03:53:14;;;;;;;14.43;6.88;;;;;;;-4.53;78.08;94837.13;6100358;29;20055;-67
2023/12/27 03:56:16;;;;;;;16.05;7.18;;;;;;;-4.43;78.59;94836.78;6084498;29;20063;-68
2023/12/27 03:59:20;;;;;;;10.25;5.90;;;;;;;-4.30;78.56;94848.25;6100788;29;20044;-68
2023/12/27 04:02:28;;;;;;;14.25;7.57;;;;;;;-4.17;77.84;94854.53;6101113;29;20059;-67
2023/12/27 04:05:31;;;;;;;12.30;5.95;;;;;;;-4.08;77.32;94859.34;6083912;29;20056;-68
2023/12/27 04:08:36;;;;;;;14.85;7.88;;;;;;;-4.18;76.85;94863.16;6101366;29;20450;-67
2023/12/27 04:11:48;;;;;;;15.65;6.65;;;;;;;-4.26;77.08;94861.78;6083888;29;20187;-67
2023/12/27 04:14:53;;;;;;;12.98;7.13;;;;;;;-4.27;77.13;94873.81;6101464;29;20036;-69
2023/12/27 04:17:56;;;;;;;9.38;5.32;;;;;;;-4.37;77.63;94872.47;6101369;29;20503;-67
2023/12/27 04:20:58;;;;;;;10.90;6.03;;;;;;;-4.40;77.32;94870.03;6100264;29;20059;-67
2023/12/27 04:24:00;;;;;;;9.57;4.60;;;;;;;-4.29;77.69;94870.44;6100724;29;20122;-68
2023/12/27 04:27:04;;;;;;;8.77;4.90;;;;;;;-4.22;76.85;94866.72;6100868;29;20047;-67
2023/12/27 04:30:09;;;;;;;9.15;5.07;;;;;;;-4.15;76.52;94878.44;6100909;29;20044;-71
2023/12/27 04:33:13;;;;;;;7.72;4.05;;;;;;;-4.06;76.76;94874.69;6100928;29;20048;-71
2023/12/27 04:36:17;;;;;;;8.60;5.05;;;;;;;-4.04;76.58;94874.63;6100310;29;20059;-68
2023/12/27 04:39:23;;;;;;;6.50;3.90;;;;;;;-4.14;76.63;94874.97;6101061;29;20056;-67
2023/12/27 04:42:27;;;;;;;6.28;4.35;;;;;;;-4.03;76.46;94871.16;6099969;29;20067;-68
2023/12/27 04:45:32;;;;;;;8.15;4.50;;;;;;;-4.14;77.04;94869.00;6099748;29;20055;-68
2023/12/27 04:48:33;;;;;;;6.32;3.35;;;;;;;-4.02;76.62;94876.22;6083218;29;20056;-67
2023/12/27 04:51:37;;;;;;;;;;;;;;;-3.99;76.80;94882.97;6101076;29;20051;-68
2023/12/27 04:54:41;;;;;;;6.47;3.55;;;;;;;-3.92;77.07;94900.66;6100670;29;20702;-69
2023/12/27 04:57:42;;;;;;;5.38;3.47;;;;;;;-3.74;76.20;94901.63;6100245;29;20123;-67
2023/12/27 05:00:51;;;;;;;7.20;3.38;;;;;;;-3.72;76.05;94907.56;6100338;29;20048;-68
2023/12/27 05:03:58;;;;;;;7.47;4.72;;;;;;;-3.70;75.64;94916.03;6100093;29;20059;-68
2023/12/27 05:06:59;;;;;;;9.20;4.40;;;;;;;-3.67;76.11;94915.91;6082444;29;20048;-67
2023/12/27 05:10:03;;;;;;;4.75;3.58;;;;;;;-3.54;75.30;94912.84;6100115;29;20052;-68
2023/12/27 05:13:07;;;;;;;6.15;4.30;;;;;;;-3.50;74.73;94914.41;6082806;29;20054;-67
2023/12/27 05:16:13;;;;;;;5.30;4.00;;;;;;;-3.88;75.61;94885.94;6099437;29;20059;-67
2023/12/27 05:19:15;;;;;;;4.25;3.30;;;;;;;-3.60;75.92;94921.63;6099296;29;20052;-68
2023/12/27 05:22:17;;;;;;;5.97;3.92;;;;;;;-3.54;76.05;94928.25;6099285;29;20050;-67
2023/12/27 05:25:21;;;;;;;4.55;3.25;;;;;;;-3.38;75.58;94929.31;6098900;29;20147;-67
2023/12/27 05:28:23;;;;;;;5.40;3.88;;;;;;;-3.46;75.45;94929.63;6099661;29;20051;-67
2023/12/27 05:31:27;;;;;;;6.30;3.70;;;;;;;-3.52;75.70;94918.75;6099647;29;20048;-67
2023/12/27 05:34:35;;;;;;;5.88;3.60;;;;;;;-3.32;74.98;94926.47;6099760;29;20139;-68
2023/12/27 05:37:45;;;;;;;8.00;4.45;;;;;;;-3.45;74.81;94925.34;6099873;29;20040;-67
2023/12/27 05:40:53;;;;;;;6.80;4.13;;;;;;;-3.44;75.42;94937.28;6099460;29;20059;-67
2023/12/27 05:44:01;;;;;;;7.63;4.72;;;;;;;-3.40;75.76;94939.69;6099600;29;20048;-67
2023/12/27 05:47:04;;;;;;;8.18;4.88;;;;;;;-3.28;75.33;94938.31;6099605;29;20111;-67
2023/12/27 05:50:09;;;;;;;7.80;4.78;;;;;;;-3.18;75.21;94939.59;6099021;29;20617;-67
2023/12/27 05:53:10;;;;;;;9.32;5.25;;;;;;;-3.00;74.63;94934.56;6098815;29;20052;-68
2023/12/27 05:56:12;;;;;;;8.63;4.75;;;;;;;-2.96;74.93;94939.53;6099199;29;20067;-68
2023/12/27 05:59:18;;;;;;;7.47;3.90;;;;;;;-2.82;74.63;94941.50;6098599;29;20056;-68
2023/12/27 06:02:25;;;;;;;5.70;3.67;;;;;;;-2.82;73.79;94933.78;6099192;29;20511;-68
2023/12/27 06:05:27;;;;;;;4.15;3.00;;;;;;;-2.65;73.23;94933.03;6082288;29;20059;-68
2023/12/27 06:08:33;;;;;;;8.55;4.03;;;;;;;-2.66;73.71;94951.13;6098884;29;20446;-68
2023/12/27 06:11:38;;;;;;;5.20;2.72;;;;;;;-2.55;73.67;94948.91;6099647;29;20126;-68
2023/12/27 06:14:44;;;;;;;4.95;2.40;;;;;;;-2.21;72.80;94943.06;6099291;29;20047;-68
2023/12/27 06:17:46;;;;;;;4.07;2.20;;;;;;;-2.24;72.58;94942.38;6101015;29;20454;-69
2023/12/27 06:20:47;;;;;;;2.85;2.17;;;;;;;-2.18;71.87;94949.81;6103510;29;20040;-69
2023/12/27 06:23:48;;;;;;;3.25;2.75;;;;;;;-2.19;71.71;94941.25;6103397;29;20067;-69
2023/12/27 06:26:52;;;;;;;2.83;2.28;;;;;;;-2.05;70.85;94948.38;6103399;29;20188;-68
2023/12/27 06:29:58;;;;;;;3.55;1.80;;;;;;;-2.08;71.03;94953.66;6103487;29;20060;-67
2023/12/27 06:33:03;;;;;;;4.07;2.58;;;;;;;-2.06;70.92;94957.00;6087374;29;20044;-70
2023/12/27 06:36:06;;;;;;;2.78;2.35;;;;;;;-2.09;71.67;94957.97;6103240;29;20048;-68
2023/12/27 06:39:12;;;;;;;4.50;2.10;;;;;;;-1.99;71.37;94953.22;6103457;29;20040;-69
2023/12/27 06:42:15;;;;;;;3.33;2.30;;;;;;;-1.89;70.58;94959.63;6103346;29;20059;-68
2023/12/27 06:45:19;;;;;;;3.42;2.30;;;;;;;-1.91;70.40;94969.19;6103456;29;20122;-68
2023/12/27 06:48:21;;;;;;;3.28;2.00;;;;;;;-1.82;70.44;94958.44;6102383;29;20438;-68
2023/12/27 06:51:22;;;;;;;3.22;2.08;;;;;;;-1.60;69.71;94954.84;6102577;29;20048;-67
2023/12/27 06:54:26;;;;;;;3.25;2.47;;;;;;;-1.51;69.23;94964.72;6102911;29;20630;-67
2023/12/27 06:57:28;;;;;;;2.97;2.58;;;;;;;-1.48;68.57;94954.25;6102441;29;20139;-67
2023/12/27 07:00:35;;;;;;;3.80;2.40;;;;;;;-1.48;69.05;94954.25;6085564;29;20056;-67
2023/12/27 07:03:36;;;;;;;3.33;1.80;;;;;;;-1.36;69.69;94969.16;6101999;29;20059;-68
2023/12/27 07:06:40;;;;;;;1.92;1.48;;;;;;;-1.22;68.06;94955.56;6102181;29;20639;-69
2023/12/27 07:09:42;;;;;;;3.50;2.33;;;;;;;-1.36;68.58;94948.50;6102269;29;20052;-68
2023/12/27 07:12:47;;;;;;;4.90;2.70;;;;;;;-1.43;68.76;94952.28;6102519;29;20044;-68
2023/12/27 07:15:48;;;;;;;4.28;2.33;;;;;;;-1.39;69.02;94953.81;6101669;29;20122;-68
2023/12/27 07:18:54;;;;;;;3.17;2.47;;;;;;;-1.17;68.75;94965.66;6102215;29;20048;-68
2023/12/27 07:21:55;;;;;;;5.22;2.05;;;;;;;-1.07;67.82;94964.28;6102404;29;20048;-68
2023/12/27 07:24:56;;;;;;;2.67;2.13;;;;;;;-1.09;67.55;94986.75;6102419;29;20044;-68
2023/12/27 07:27:58;;;;;;;4.80;2.17;;;;;;;-1.25;68.31;94975.50;6101552;29;20048;-68
2023/12/27 07:31:04;;;;;;;3.90;2.00;;;;;;;-1.32;68.04;94974.97;6101900;29;20052;-69
2023/12/27 07:34:07;;;;;;;3.47;2.30;;;;;;;-1.24;67.71;94982.34;6102007;29;20052;-67
2023/12/27 07:37:11;;;;;;;4.30;2.00;;;;;;;-0.97;68.23;94996.47;6102300;29;20045;-68
2023/12/27 07:40:15;;;;;;;1.63;1.23;;;;;;;0.73;65.22;94986.59;6101554;29;20524;-68
2023/12/27 07:43:22;;;;;;;1.20;1.10;;;;;;;4.57;57.44;94982.94;6101549;29;20138;-68
2023/12/27 07:46:26;;;;;;;2.08;1.27;;;;;;;7.84;49.24;94985.41;6102237;29;20127;-66
2023/12/27 07:49:28;;;;;;;1.67;1.30;;;;;;;9.41;45.04;94998.84;6101244;29;20171;-65
2023/12/27 07:52:32;;;;;;;1.20;1.02;;;;;;;9.88;45.13;95001.56;6100850;29;20430;-64
2023/12/27 07:55:34;;;;;;;1.15;0.98;;;;;;;9.63;43.83;94999.53;6100612;29;20051;-66
2023/12/27 07:58:39;;;;;;;1.27;0.70;;;;;;;8.42;43.10;94981.41;6101137;29;20056;-64
2023/12/27 08:01:45;;;;;;;1.33;0.60;;;;;;;7.93;44.18;94989.03;6100804;29;20458;-65
2023/12/27 08:04:50;;;;;;;1.25;0.70;;;;;;;6.75;45.70;94983.84;6100828;29;20592;-65
2023/12/27 08:07:51;;;;;;;0.70;0.50;;;;;;;5.76;47.32;94992.41;6100822;29;20430;-64
2023/12/27 08:10:53;;;;;;;0.47;0.47;;;;;;;6.82;46.00;94996.41;6101138;29;20077;-65
2023/12/27 08:13:57;;;;;;;1.85;1.00;;;;;;;6.74;46.39;95005.72;6101588;29;20071;-66
2023/12/27 08:16:59;;;;;;;0.85;0.70;;;;;;;7.68;45.00;94994.66;6100312;29;20056;-66
2023/12/27 08:20:04;;;;;;;1.15;0.90;;;;;;;8.33;44.18;95001.34;6101156;29;20406;-66
2023/12/27 08:23:12;;;;;;;1.75;0.98;;;;;;;8.44;44.18;95003.91;6101189;29;20051;-68
2023/12/27 08:26:17;;;;;;;0.90;0.80;;;;;;;8.19;44.31;94999.91;6100305;29;20048;-66
2023/12/27 08:29:20;;;;;;;0.88;0.73;;;;;;;6.51;47.15;95004.91;6100575;29;20554;-66
2023/12/27 08:32:22;;;;;;;;;;;;;;;5.04;50.26;94984.75;6100781;29;20051;-66
2023/12/27 08:35:26;;;;;;;1.17;1.00;;;;;;;6.30;50.37;94976.06;6100094;29;20283;-67
2023/12/27 08:38:28;;;;;;;1.13;0.70;;;;;;;4.77;49.95;94981.53;6100382;29;20052;-68
2023/12/27 08:41:32;;;;;;;0.90;0.80;;;;;;;2.80;52.98;94988.84;6098854;29;20216;-68
2023/12/27 08:44:37;;;;;;;1.83;1.25;;;;;;;1.73;55.75;94992.03;6099769;29;20058;-67
2023/12/27 08:47:38;;;;;;;1.30;1.20;;;;;;;1.13;56.17;94997.28;6099957;29;20056;-67
2023/12/27 08:50:46;;;;;;;1.30;1.17;;;;;;;1.12;56.68;95000.81;6100552;29;20048;-67
2023/12/27 08:53:52;;;;;;;1.80;1.45;;;;;;;1.17;55.49;95024.69;6099852;29;20492;-68
2023/12/27 08:56:53;;;;;;;2.10;1.52;;;;;;;0.74;57.13;95021.13;6099318;29;20083;-67
2023/12/27 08:59:57;;;;;;;1.40;1.25;;;;;;;0.93;57.05;95033.84;6100283;29;20134;-68
2023/12/27 09:03:00;;;;;;;2.00;1.80;;;;;;;1.02;56.96;95023.81;6099529;29;20055;-67
2023/12/27 09:06:01;;;;;;;2.22;1.45;;;;;;;1.04;56.79;95034.91;6099442;29;20048;-68
2023/12/27 09:09:02;;;;;;;2.53;1.90;;;;;;;1.03;56.83;95033.25;6099643;29;20052;-67
2023/12/27 09:12:06;;;;;;;1.83;1.67;;;;;;;0.82;56.44;95040.47;6100391;29;20426;-68
2023/12/27 09:15:08;;;;;;;1.77;1.65;;;;;;;0.59;57.83;95038.31;6099727;29;20134;-67
2023/12/27 09:18:10;;;;;;;2.47;2.08;;;;;;;0.62;57.73;95040.72;6099392;29;20570;-68
2023/12/27 09:21:16;;;;;;;2.50;2.03;;;;;;;0.47;57.65;95036.41;6099828;29;20650;-68
2023/12/27 09:24:21;;;;;;;2.55;1.98;;;;;;;0.27;59.09;95040.91;6100106;29;20052;-68
2023/12/27 09:27:25;;;;;;;1.63;1.25;;;;;;;0.46;58.08;95053.69;6099234;29;20111;-69
2023/12/27 09:30:28;;;;;;;2.30;1.90;;;;;;;0.39;58.45;95039.41;6099706;29;20433;-69
2023/12/27 09:33:30;;;;;;;1.83;1.30;;;;;;;0.39;58.42;95040.22;6098809;29;20055;-68
2023/12/27 09:36:37;;;;;;;2.88;1.90;;;;;;;0.01;60.12;95049.22;6099556;29;20415;-68
2023/12/27 09:39:44;;;;;;;3.33;2.17;;;;;;;-0.16;60.40;95035.41;6099628;29;20052;-68
2023/12/27 09:42:49;;;;;;;3.88;2.80;;;;;;;-0.17;59.84;95054.44;6099835;29;20060;-67
2023/12/27 09:45:53;;;;;;;3.67;2.07;;;;;;;-0.20;60.05;95053.75;6098824;29;20055;-67
2023/12/27 09:48:57;;;;;;;3.05;2.30;;;;;;;-0.21;60.07;95068.41;6098946;29;20518;-67
2023/12/27 09:52:01;;;;;;;2.40;1.60;;;;;;;-0.31;60.25;95062.91;6100611;29;20422;-68
2023/12/27 09:55:05;;;;;;;2.17;1.63;;;;;;;-0.38;60.74;95051.19;6104719;29;20044;-67
2023/12/27 09:58:11;;;;;;;3.50;2.38;;;;;;;-0.56;61.85;95060.72;6104401;29;20056;-66
2023/12/27 10:01:16;;;;;;;3.00;2.40;;;;;;;-0.63;61.58;95067.09;6087229;29;20044;-67
2023/12/27 10:04:29;;;;;;;2.55;1.65;;;;;;;-0.52;62.02;95075.13;6103252;29;20057;-67
2023/12/27 10:07:38;;;;;;;3.92;3.10;;;;;;;-0.60;62.77;95071.28;6086974;29;20056;-68
2023/12/27 10:10:44;;;;;;;2.55;1.95;;;;;;;-0.47;62.35;95062.00;6103721;29;20063;-66
2023/12/27 10:13:50;;;;;;;4.38;3.20;;;;;;;-0.65;63.19;95071.53;6103497;29;20176;-68
2023/12/27 10:16:56;;;;;;;3.47;3.15;;;;;;;-0.69;63.02;95091.47;6103483;29;20056;-68
2023/12/27 10:20:00;;;;;;;4.78;2.80;;;;;;;-0.77;63.75;95080.69;6103514;29;20059;-67
2023/12/27 10:23:06;;;;;;;4.38;3.20;;;;;;;-0.78;62.90;95075.63;6103510;29;20056;-69
2023/12/27 10:26:10;;;;;;;4.38;2.88;;;;;;;-0.88;63.70;95077.78;6103182;29;20199;-67
2023/12/27 10:29:15;;;;;;;4.30;2.80;;;;;;;-0.87;64.49;95076.06;6103036;29;20052;-66
2023/12/27 10:32:18;;;;;;;3.75;3.15;;;;;;;-0.86;64.39;95085.47;6103813;29;20048;-68
2023/12/27 10:35:22;;;;;;;3.40;2.63;;;;;;;-0.76;64.01;95091.88;6103599;29;20048;-67
2023/12/27 10:38:24;;;;;;;3.67;3.15;;;;;;;-0.85;64.22;95081.97;6086475;29;20076;-68
2023/12/27 10:41:25;;;;;;;6.15;3.42;;;;;;;-1.08;64.80;95091.66;6102458;29;20040;-67
2023/12/27 10:44:32;;;;;;;4.38;3.05;;;;;;;-0.89;64.42;95094.19;6103219;29;20143;-67
2023/12/27 10:47:40;;;;;;;3.05;2.35;;;;;;;-0.77;64.05;95095.34;6103420;29;20056;-68
2023/12/27 10:50:44;;;;;;;3.70;2.53;;;;;;;-0.83;63.81;95105.97;6102738;29;20048;-67
2023/12/27 10:54:00;;;;;;;4.07;3.28;;;;;;;-0.95;64.80;95097.91;6103500;29;20052;-66
2023/12/27 10:57:11;;;;;;;3.45;2.15;;;;;;;-0.77;64.59;95116.84;6102674;29;20481;-68
2023/12/27 11:00:13;;;;;;;3.65;2.70;;;;;;;-0.81;64.06;95117.09;6102277;29;20429;-66
2023/12/27 11:03:19;;;;;;;4.13;3.17;;;;;;;-0.83;64.69;95131.81;6102400;29;20056;-66
2023/12/27 11:06:26;;;;;;;3.35;2.50;;;;;;;-0.87;64.66;95123.38;6102531;29;20048;-68
2023/12/27 11:09:35;;;;;;;2.20;1.88;;;;;;;-0.76;64.08;95128.03;6102674;29;20055;-67
2023/12/27 11:12:46;;;;;;;3.90;2.80;;;;;;;-0.89;64.21;95139.84;6102895;29;20067;-68
2023/12/27 11:15:55;;;;;;;4.70;3.42;;;;;;;-1.01;65.34;95129.19;6102230;29;20371;-67
2023/12/27 11:19:06;;;;;;;4.65;3.22;;;;;;;-1.01;65.01;95142.09;6102613;29;20430;-68
2023/12/27 11:22:11;;;;;;;3.92;2.80;;;;;;;-1.09;65.22;95140.78;6102138;29;20056;-67
2023/12/27 11:25:16;;;;;;;3.58;2.95;;;;;;;-1.00;65.25;95146.34;6102082;29;20048;-68
2023/12/27 11:28:26;;;;;;;3.85;3.22;;;;;;;-0.97;64.93;95151.34;6086364;29;20075;-67
2023/12/27 11:31:36;;;;;;;3.55;2.78;;;;;;;-1.03;65.15;95159.41;6102229;29;20072;-67
2023/12/27 11:34:42;;;;;;;3.65;2.63;;;;;;;-1.10;65.83;95155.44;6102531;29;20048;-68
2023/12/27 11:37:49;;;;;;;4.00;2.72;;;;;;;-1.04;66.06;95150.00;6084801;29;20058;-68
2023/12/27 11:40:52;;;;;;;3.55;2.50;;;;;;;-1.00;65.82;95155.84;6084610;29;20071;-69
2023/12/27 11:43:57;;;;;;;3.53;2.25;;;;;;;-1.06;65.47;95141.47;6102266;29;20044;-67
2023/12/27 11:46:59;;;;;;;2.22;1.77;;;;;;;-1.23;65.92;95149.16;6101592;29;20083;-67
2023/12/27 11:50:19;;;;;;;2.65;1.15;;;;;;;-1.04;66.04;95149.16;6101321;29;20102;-68
2023/12/27 11:53:24;;;;;;;2.05;1.50;;;;;;;-0.97;65.51;95146.19;6101159;29;20059;-67
2023/12/27 11:56:33;;;;;;;1.77;1.42;;;;;;;-0.97;65.12;95145.38;6100524;29;20055;-69
2023/12/27 11:59:38;;;;;;;1.73;1.25;;;;;;;-1.10;65.81;95129.63;6101808;29;20166;-70
2023/12/27 12:02:57;;;;;;;2.30;1.50;;;;;;;-1.28;66.48;95125.31;6101851;29;20499;-67
2023/12/27 12:06:26;;;;;;;1.25;0.90;;;;;;;-1.02;65.76;95132.69;6101631;29;20051;-68
2023/12/27 12:09:37;;;;;;;3.55;1.25;;;;;;;-1.13;65.65;95137.53;6100798;29;20147;-68
2023/12/27 12:12:41;;;;;;;2.20;1.65;;;;;;;-1.24;66.17;95156.09;6100555;29;20049;-68
2023/12/27 12:15:43;;;;;;;1.60;1.20;;;;;;;-1.23;66.25;95154.34;6099664;29;20525;-68
2023/12/27 12:18:44;;;;;;;1.52;1.38;;;;;;;-1.32;66.72;95154.75;6100746;29;20144;-68
2023/12/27 12:21:51;;;;;;;1.90;0.90;;;;;;;-1.31;66.98;95175.31;6101554;29;20040;-68
2023/12/27 12:25:05;;;;;;;1.85;0.85;;;;;;;-1.17;66.18;95174.69;6100893;29;20051;-68
2023/12/27 12:28:09;;;;;;;1.65;1.17;;;;;;;-1.12;66.59;95165.00;6100419;29;20059;-68
2023/12/27 12:31:14;;;;;;;1.60;0.63;;;;;;;-1.15;66.32;95183.22;6101045;29;20378;-68
2023/12/27 12:34:21;;;;;;;1.17;0.65;;;;;;;-1.22;66.91;95179.22;6101060;29;20070;-68
2023/12/27 12:37:28;;;;;;;1.20;0.90;;;;;;;-1.38;67.07;95182.50;6101174;29;20531;-68
2023/12/27 12:40:36;;;;;;;0.80;0.65;;;;;;;-1.06;66.93;95161.28;6101134;29;20511;-68
2023/12/27 12:43:38;;;;;;;1.83;1.20;;;;;;;-1.20;66.92;95180.00;6083630;29;20052;-67
2023/12/27 12:46:42;;;;;;;1.85;1.33;;;;;;;-1.23;67.47;95187.88;6100518;29;20071;-68
2023/12/27 12:49:48;;;;;;;1.42;1.33;;;;;;;-1.13;66.66;95194.31;6099561;29;20541;-68
2023/12/27 12:52:52;;;;;;;1.83;1.30;;;;;;;-1.11;67.12;95195.06;6100322;29;20060;-68
2023/12/27 12:55:58;;;;;;;1.67;1.10;;;;;;;-1.23;67.79;95182.72;6099950;29;20055;-68
2023/12/27 12:58:59;;;;;;;1.10;1.00;;;;;;;-1.27;67.75;95169.13;6099776;29;20071;-67
2023/12/27 13:02:01;;;;;;;0.70;0.70;;;;;;;-1.26;67.33;95180.28;6099872;29;20048;-66
2023/12/27 13:05:05;;;;;;;1.25;1.08;;;;;;;-1.28;67.88;95179.50;6100075;29;20051;-68
2023/12/27 13:08:11;;;;;;;0.60;0.60;;;;;;;-1.39;67.89;95190.31;6100071;29;20051;-67
2023/12/27 13:11:17;;;;;;;1.00;0.90;;;;;;;-1.45;68.35;95183.66;6100476;29;20044;-68
2023/12/27 13:14:21;;;;;;;1.50;1.10;;;;;;;-1.22;67.53;95176.63;6100513;29;20109;-67
2023/12/27 13:17:26;;;;;;;0.88;0.80;;;;;;;-1.22;67.32;95179.22;6098830;29;20079;-69
2023/12/27 13:20:27;;;;;;;1.58;1.13;;;;;;;-1.15;66.00;95172.88;6099120;29;20408;-67
2023/12/27 13:23:32;;;;;;;3.42;1.52;;;;;;;-1.29;66.66;95183.84;6099966;29;20566;-68
2023/12/27 13:26:33;;;;;;;1.30;1.10;;;;;;;-1.20;65.98;95175.66;6082622;29;20040;-67
2023/12/27 13:29:38;;;;;;;1.20;0.98;;;;;;;-1.02;64.86;95178.31;6099127;29;20059;-69
2023/12/27 13:32:41;;;;;;;0.95;0.77;;;;;;;-1.12;65.09;95172.75;6099697;29;20130;-68
2023/12/27 13:35:45;;;;;;;1.27;1.17;;;;;;;-1.04;64.35;95160.31;6099897;29;20044;-67
2023/12/27 13:38:47;;;;;;;1.00;0.90;;;;;;;-1.13;65.36;95171.06;6098996;29;20048;-67
2023/12/27 13:41:48;;;;;;;1.13;0.98;;;;;;;-1.10;65.30;95152.88;6098916;29;20040;-66
2023/12/27 13:44:50;;;;;;;1.67;1.10;;;;;;;-1.18;65.04;95162.69;6098867;29;20052;-66
2023/12/27 13:47:54;;;;;;;1.60;1.27;;;;;;;-1.13;65.54;95155.59;6098759;29;20052;-68
2023/12/27 13:50:59;;;;;;;1.65;1.15;;;;;;;-1.37;65.73;95155.78;6098891;29;20067;-67
2023/12/27 13:54:02;;;;;;;1.73;1.05;;;;;;;-1.26;66.24;95152.72;6081259;29;20080;-67
2023/12/27 13:57:05;;;;;;;0.68;0.47;;;;;;;-1.23;66.36;95169.81;6099737;29;20051;-68
2023/12/27 14:00:09;;;;;;;1.10;0.93;;;;;;;-1.18;66.30;95179.03;6098920;29;20113;-68
2023/12/27 14:03:13;;;;;;;1.25;0.82;;;;;;;-0.93;65.89;95170.97;6074984;29;20057;-68
2023/12/27 14:06:14;;;;;;;1.40;1.15;;;;;;;-0.96;65.57;95184.03;6076358;29;20047;-68
2023/12/27 14:09:17;;;;;;;0.93;0.88;;;;;;;-1.11;65.93;95173.56;6075645;29;20523;-67
2023/12/27 14:12:25;;;;;;;1.50;1.02;;;;;;;-0.96;65.45;95178.88;6075855;29;20041;-67
2023/12/27 14:15:26;;;;;;;2.13;1.30;;;;;;;-1.01;66.47;95204.06;6075809;29;20059;-67
2023/12/27 14:18:30;;;;;;;1.98;1.65;;;;;;;-1.18;67.11;95198.84;6075527;29;20410;-67
2023/12/27 14:21:34;;;;;;;2.08;1.45;;;;;;;-1.09;66.60;95200.16;6076035;29;20067;-68
2023/12/27 14:24:40;;;;;;;1.92;1.50;;;;;;;-1.24;66.85;95192.22;6074255;29;20052;-68
2023/12/27 14:27:44;;;;;;;2.45;1.83;;;;;;;-1.20;66.95;95195.47;6075511;29;20536;-67